createdAt,value
2022-08-08T00:00:53.657Z,93.31
2022-08-08T00:02:57.033Z,94.40
2022-08-08T00:06:14.428Z,94.17
2022-08-08T00:09:33.209Z,94.65
2022-08-08T00:12:56.503Z,94.14
2022-08-08T00:16:11.157Z,93.48
2022-08-08T00:19:29.650Z,94.80
2022-08-08T00:22:49.843Z,93.82
2022-08-08T00:26:06.109Z,95.25
2022-08-08T00:29:44.985Z,95.01
2022-08-08T00:32:46.810Z,94.74
2022-08-08T00:36:05.523Z,94.39
2022-08-08T00:41:08.113Z,94.21
2022-08-08T00:43:11.846Z,94.12
2022-08-08T00:47:02.076Z,93.79
2022-08-08T00:51:07.087Z,92.12
2022-08-08T00:55:18.941Z,94.22
2022-08-08T00:59:43.989Z,93.07
2022-08-08T01:04:00.940Z,92.41
2022-08-08T01:07:55.476Z,92.68
2022-08-08T01:11:39.415Z,92.72
2022-08-08T01:15:56.845Z,91.65
2022-08-08T01:20:03.306Z,94.54
2022-08-08T01:24:03.326Z,93.70
2022-08-08T01:27:33.082Z,94.00
2022-08-08T01:32:13.074Z,94.48
2022-08-08T01:35:44.529Z,95.46
2022-08-08T01:39:35.091Z,94.25
2022-08-08T01:42:52.127Z,94.37
2022-08-08T01:46:13.993Z,93.54
2022-08-08T01:49:37.742Z,94.29
2022-08-08T01:54:05.295Z,95.02
2022-08-08T01:56:29.294Z,95.59
2022-08-08T02:00:02.151Z,95.67
2022-08-08T02:03:57.744Z,96.27
2022-08-08T02:07:06.078Z,96.05
2022-08-08T02:10:45.141Z,98.14
2022-08-08T02:13:59.835Z,98.51
2022-08-08T02:17:23.291Z,99.28
2022-08-08T02:21:01.900Z,97.22
2022-08-08T02:24:04.425Z,98.49
2022-08-08T02:27:21.701Z,98.08
2022-08-08T02:30:49.998Z,96.35
2022-08-08T02:34:09.117Z,98.99
2022-08-08T02:37:53.469Z,100.00
2022-08-08T02:40:50.087Z,99.10
2022-08-08T02:44:57.271Z,97.25
2022-08-08T02:48:40.901Z,98.20
2022-08-08T02:52:39.166Z,98.12
2022-08-08T02:56:36.783Z,98.48
2022-08-08T03:00:33.679Z,96.88
2022-08-08T03:05:03.240Z,97.66
2022-08-08T03:08:52.310Z,97.03
2022-08-08T03:13:01.680Z,97.58
2022-08-08T03:16:43.346Z,98.03
2022-08-08T03:20:08.306Z,98.91
2022-08-08T03:23:22.413Z,96.30
2022-08-08T03:26:43.141Z,96.12
2022-08-08T03:30:02.879Z,94.85
2022-08-08T03:33:55.699Z,95.65
2022-08-08T03:36:44.724Z,95.83
2022-08-08T03:40:00.511Z,97.07
2022-08-08T03:43:15.647Z,95.43
2022-08-08T03:46:32.615Z,95.46
2022-08-08T03:50:00.845Z,95.27
2022-08-08T03:53:00.025Z,95.76
2022-08-08T03:56:32.277Z,94.96
2022-08-08T03:59:27.223Z,94.55
2022-08-08T04:02:47.838Z,93.46
2022-08-08T04:05:54.546Z,93.35
2022-08-08T04:09:11.857Z,92.90
2022-08-08T04:12:25.689Z,94.28
2022-08-08T04:15:39.299Z,92.78
2022-08-08T04:18:54.162Z,92.22
2022-08-08T04:22:07.729Z,91.70
2022-08-08T04:25:23.310Z,90.30
2022-08-08T04:28:40.534Z,92.61
2022-08-08T04:31:59.854Z,92.34
2022-08-08T04:35:05.363Z,94.00
2022-08-08T04:38:21.303Z,94.67
2022-08-08T04:41:35.804Z,93.66
2022-08-08T04:44:49.320Z,94.54
2022-08-08T04:48:01.429Z,93.87
2022-08-08T04:51:17.503Z,92.97
2022-08-08T04:54:39.590Z,92.41
2022-08-08T04:57:43.371Z,91.50
2022-08-08T05:00:55.419Z,89.90
2022-08-08T05:04:12.646Z,91.35
2022-08-08T05:07:24.149Z,93.32
2022-08-08T05:10:38.315Z,93.64
2022-08-08T05:13:58.605Z,95.70
2022-08-08T05:17:09.014Z,96.09
2022-08-08T05:20:19.758Z,96.63
2022-08-08T05:23:32.728Z,97.84
2022-08-08T05:26:48.747Z,98.21
2022-08-08T05:30:00.795Z,97.53
2022-08-08T05:33:14.390Z,97.61
2022-08-08T05:36:30.713Z,98.61
2022-08-08T05:39:43.976Z,97.73
2022-08-08T05:43:01.782Z,97.81
2022-08-08T05:46:13.523Z,97.45
2022-08-08T05:49:28.424Z,98.02
2022-08-08T05:52:44.046Z,97.91
2022-08-08T05:56:08.014Z,96.72
2022-08-08T05:59:15.617Z,94.87
2022-08-08T06:02:46.823Z,96.89
2022-08-08T06:06:06.643Z,100.00
2022-08-08T06:09:58.894Z,100.00
2022-08-08T06:12:37.741Z,100.00
2022-08-08T06:15:54.905Z,100.00
2022-08-08T06:19:25.718Z,100.00
2022-08-08T06:22:42.126Z,100.00
2022-08-08T06:26:43.124Z,100.00
2022-08-08T06:29:48.526Z,100.00
2022-08-08T06:32:34.024Z,100.00
2022-08-08T06:36:04.621Z,100.00
2022-08-08T06:39:10.898Z,100.00
2022-08-08T06:42:26.491Z,100.00
2022-08-08T06:45:42.732Z,100.00
2022-08-08T06:48:56.135Z,100.00
2022-08-08T06:52:09.458Z,100.00
2022-08-08T06:55:23.555Z,100.00
2022-08-08T06:58:36.893Z,100.00
2022-08-08T07:02:26.814Z,98.67
2022-08-08T07:05:20.046Z,99.41
2022-08-08T07:08:37.472Z,100.00
2022-08-08T07:11:53.099Z,100.00
2022-08-08T07:15:15.486Z,99.07
2022-08-08T07:18:40.505Z,95.52
2022-08-08T07:22:05.411Z,93.31
2022-08-08T07:25:17.363Z,93.25
2022-08-08T07:28:31.552Z,93.15
2022-08-08T07:31:46.687Z,93.01
2022-08-08T07:35:02.579Z,91.08
2022-08-08T07:38:25.636Z,92.59
2022-08-08T07:42:03.869Z,93.64
2022-08-08T07:44:53.393Z,91.65
2022-08-08T07:48:08.726Z,90.64
2022-08-08T07:51:23.684Z,91.67
2022-08-08T07:54:53.062Z,91.44
2022-08-08T07:58:13.626Z,86.38
2022-08-08T08:02:32.927Z,86.44
2022-08-08T08:04:49.375Z,86.47
2022-08-08T08:08:07.795Z,84.19
2022-08-08T08:11:38.256Z,82.83
2022-08-08T08:14:48.820Z,81.09
2022-08-08T08:18:07.153Z,78.74
2022-08-08T08:21:35.536Z,75.84
2022-08-08T08:24:37.712Z,76.01
2022-08-08T08:27:50.339Z,73.15
2022-08-08T08:31:07.976Z,73.29
2022-08-08T08:34:21.244Z,73.06
2022-08-08T08:37:47.957Z,74.11
2022-08-08T08:40:51.446Z,73.25
2022-08-08T08:44:14.088Z,71.78
2022-08-08T08:47:21.164Z,70.54
2022-08-08T08:50:35.333Z,69.27
2022-08-08T08:54:00.833Z,68.30
2022-08-08T08:57:15.782Z,65.56
2022-08-08T09:04:32.176Z,65.23
2022-08-08T09:07:39.266Z,65.03
2022-08-08T09:14:32.197Z,65.48
2022-08-08T09:17:55.687Z,64.34
2022-08-08T09:22:01.964Z,65.20
2022-08-08T09:24:17.678Z,63.28
2022-08-08T09:27:55.787Z,61.97
2022-08-08T09:34:31.588Z,58.07
2022-08-08T09:37:39.485Z,57.36
2022-08-08T09:40:43.981Z,58.01
2022-08-08T09:44:34.029Z,54.95
2022-08-08T09:48:03.950Z,54.02
2022-08-08T09:51:15.816Z,52.72
2022-08-08T09:54:37.637Z,52.72
2022-08-08T09:57:55.510Z,52.37
2022-08-08T10:01:02.020Z,52.95
2022-08-08T10:04:35.430Z,54.28
2022-08-08T10:07:36.038Z,53.29
2022-08-08T10:10:51.375Z,51.27
2022-08-08T10:14:07.440Z,51.01
2022-08-08T10:17:57.432Z,50.83
2022-08-08T10:20:51.090Z,50.56
2022-08-08T10:24:00.242Z,52.23
2022-08-08T10:27:13.698Z,49.78
2022-08-08T10:31:00.553Z,52.06
2022-08-08T10:34:19.827Z,50.63
2022-08-08T10:37:00.377Z,49.73
2022-08-08T10:40:23.333Z,50.46
2022-08-08T10:43:46.298Z,51.67
2022-08-08T10:46:58.211Z,48.38
2022-08-08T10:50:16.076Z,50.45
2022-08-08T10:53:56.438Z,49.14
2022-08-08T10:56:48.085Z,48.01
2022-08-08T11:00:03.462Z,47.51
2022-08-08T11:03:37.147Z,49.20
2022-08-08T11:06:42.046Z,46.33
2022-08-08T11:09:55.296Z,48.12
2022-08-08T11:13:28.773Z,48.04
2022-08-08T11:16:33.460Z,48.48
2022-08-08T11:19:46.771Z,48.14
2022-08-08T11:23:05.248Z,45.86
2022-08-08T11:26:28.014Z,50.89
2022-08-08T11:29:51.018Z,49.17
2022-08-08T11:32:55.509Z,47.42
2022-08-08T11:36:07.872Z,49.76
2022-08-08T11:39:21.838Z,47.46
2022-08-08T11:42:37.910Z,48.52
2022-08-08T11:46:09.842Z,48.63
2022-08-08T11:49:14.742Z,50.72
2022-08-08T11:52:29.765Z,53.75
2022-08-08T11:55:55.414Z,48.33
2022-08-08T11:59:16.794Z,52.42
2022-08-08T12:02:45.558Z,51.10
2022-08-08T12:05:59.360Z,50.10
2022-08-08T12:09:17.101Z,50.14
2022-08-08T12:12:36.498Z,50.43
2022-08-08T12:19:37.573Z,53.31
2022-08-08T12:22:56.981Z,51.12
2022-08-08T12:26:27.969Z,50.50
2022-08-08T12:29:44.837Z,51.96
2022-08-08T12:32:57.673Z,51.73
2022-08-08T12:36:20.294Z,50.71
2022-08-08T12:39:59.827Z,48.78
2022-08-08T12:42:55.848Z,49.69
2022-08-08T12:46:25.186Z,47.85
2022-08-08T12:49:44.995Z,48.40
2022-08-08T12:53:07.545Z,47.43
2022-08-08T12:56:24.112Z,49.04
2022-08-08T13:00:03.814Z,47.82
2022-08-08T13:03:04.877Z,47.81
2022-08-08T13:06:22.840Z,45.98
2022-08-08T13:10:05.995Z,48.93
2022-08-08T13:13:37.543Z,48.23
2022-08-08T13:16:51.101Z,50.45
2022-08-08T13:20:08.619Z,48.17
2022-08-08T13:23:36.996Z,51.37
2022-08-08T13:26:41.027Z,49.31
2022-08-08T13:30:01.523Z,47.10
2022-08-08T13:33:18.323Z,47.69
2022-08-08T13:36:29.645Z,47.57
2022-08-08T13:39:44.399Z,45.68
2022-08-08T13:43:17.073Z,45.74
2022-08-08T13:46:30.812Z,47.03
2022-08-08T13:50:38.335Z,49.00
2022-08-08T13:53:24.448Z,48.51
2022-08-08T13:56:27.196Z,45.58
2022-08-08T13:59:48.067Z,46.90
2022-08-08T14:03:26.401Z,46.11
2022-08-08T14:06:32.787Z,45.55
2022-08-08T14:10:04.551Z,44.31
2022-08-08T14:12:59.642Z,46.19
2022-08-08T14:16:16.403Z,48.47
2022-08-08T14:19:56.274Z,49.09
2022-08-08T14:22:54.669Z,46.25
2022-08-08T14:26:10.973Z,47.87
2022-08-08T14:29:30.778Z,48.54
2022-08-08T14:32:52.721Z,48.58
2022-08-08T14:36:11.460Z,50.64
2022-08-08T14:39:48.617Z,49.33
2022-08-08T14:42:55.304Z,48.07
2022-08-08T14:46:11.127Z,49.71
2022-08-08T14:49:31.891Z,50.36
2022-08-08T14:52:50.018Z,51.32
2022-08-08T14:56:04.414Z,48.09
2022-08-08T14:59:44.628Z,47.75
2022-08-08T15:02:33.136Z,49.46
2022-08-08T15:05:53.570Z,51.36
2022-08-08T15:09:00.954Z,53.58
2022-08-08T15:12:14.084Z,52.50
2022-08-08T15:16:02.125Z,52.34
2022-08-08T15:18:44.259Z,51.54
2022-08-08T15:21:56.221Z,51.83
2022-08-08T15:25:17.819Z,50.80
2022-08-08T15:28:34.146Z,50.50
2022-08-08T15:32:03.955Z,51.33
2022-08-08T15:34:56.381Z,50.88
2022-08-08T15:38:13.371Z,52.54
2022-08-08T15:41:37.031Z,53.61
2022-08-08T15:44:38.652Z,53.04
2022-08-08T15:48:15.237Z,53.46
2022-08-08T15:51:09.079Z,52.71
2022-08-08T15:54:38.389Z,53.62
2022-08-08T15:57:40.131Z,53.27
2022-08-08T16:00:50.926Z,54.39
2022-08-08T16:04:03.105Z,53.92
2022-08-08T16:07:15.186Z,54.11
2022-08-08T16:13:11.361Z,53.83
2022-08-08T16:13:45.219Z,54.32
2022-08-08T16:16:57.454Z,55.00
2022-08-08T16:20:13.391Z,55.15
2022-08-08T16:23:24.112Z,56.46
2022-08-08T16:26:42.300Z,56.32
2022-08-08T16:30:13.607Z,56.42
2022-08-08T16:33:09.421Z,56.57
2022-08-08T16:36:27.982Z,56.40
2022-08-08T16:40:02.236Z,57.18
2022-08-08T16:42:51.803Z,56.86
2022-08-08T16:46:43.399Z,58.08
2022-08-08T16:49:17.715Z,57.84
2022-08-08T16:55:03.228Z,57.56
2022-08-08T16:55:55.870Z,57.93
2022-08-08T16:58:59.654Z,58.70
2022-08-08T17:02:37.853Z,59.21
2022-08-08T17:05:44.798Z,60.88
2022-08-08T17:08:46.516Z,60.06
2022-08-08T17:12:02.379Z,61.00
2022-08-08T17:15:17.529Z,60.98
2022-08-08T17:18:30.217Z,60.72
2022-08-08T17:21:47.049Z,60.63
2022-08-08T17:25:00.428Z,61.79
2022-08-08T17:28:14.263Z,62.25
2022-08-08T17:31:45.689Z,63.70
2022-08-08T17:35:14.517Z,62.19
2022-08-08T17:37:55.381Z,64.47
2022-08-08T17:41:07.998Z,64.26
2022-08-08T17:44:19.974Z,64.11
2022-08-08T17:47:37.501Z,63.69
2022-08-08T17:50:49.193Z,65.04
2022-08-08T17:54:04.060Z,64.25
2022-08-08T17:57:15.211Z,66.04
2022-08-08T18:00:30.639Z,66.28
2022-08-08T18:03:42.063Z,67.96
2022-08-08T18:06:56.771Z,68.30
2022-08-08T18:10:14.685Z,66.99
2022-08-08T18:13:27.216Z,68.19
2022-08-08T18:16:43.448Z,69.12
2022-08-08T18:20:44.514Z,70.36
2022-08-08T18:23:12.514Z,70.54
2022-08-08T18:26:25.912Z,70.20
2022-08-08T18:29:40.393Z,72.28
2022-08-08T18:32:54.098Z,72.31
2022-08-08T18:36:18.660Z,73.97
2022-08-08T18:39:27.421Z,73.38
2022-08-08T18:42:37.435Z,72.98
2022-08-08T18:46:53.529Z,72.89
2022-08-08T18:49:05.146Z,74.20
2022-08-08T18:52:22.869Z,75.09
2022-08-08T18:55:32.571Z,76.17
2022-08-08T18:58:44.498Z,74.85
2022-08-08T19:02:24.931Z,75.65
2022-08-08T19:05:12.413Z,74.60
2022-08-08T19:08:29.328Z,78.30
2022-08-08T19:11:46.670Z,75.61
2022-08-08T19:14:55.037Z,75.74
2022-08-08T19:18:32.308Z,77.47
2022-08-08T19:21:29.097Z,77.78
2022-08-08T19:24:49.078Z,77.57
2022-08-08T19:27:55.963Z,77.69
2022-08-08T19:31:09.321Z,78.27
2022-08-08T19:34:36.307Z,78.81
2022-08-08T19:37:42.606Z,79.58
2022-08-08T19:40:48.362Z,79.66
2022-08-08T19:44:12.487Z,79.35
2022-08-08T19:47:23.940Z,80.55
2022-08-08T19:50:33.099Z,80.53
2022-08-08T19:53:53.192Z,81.31
2022-08-08T19:56:59.531Z,82.48
2022-08-08T20:00:30.783Z,82.96
2022-08-08T20:04:02.570Z,83.56
2022-08-08T20:06:46.656Z,83.22
2022-08-08T20:10:00.159Z,83.76
2022-08-08T20:14:13.309Z,83.53
2022-08-08T20:16:29.640Z,84.37
2022-08-08T20:19:42.153Z,84.15
2022-08-08T20:22:56.411Z,84.37
2022-08-08T20:26:08.992Z,85.84
2022-08-08T20:29:22.866Z,86.08
2022-08-08T20:32:37.082Z,85.84
2022-08-08T20:35:56.751Z,86.12
2022-08-08T20:39:03.870Z,85.01
2022-08-08T20:42:15.759Z,85.17
2022-08-08T20:45:54.382Z,85.80
2022-08-08T20:48:42.197Z,86.89
2022-08-08T20:51:54.110Z,86.81
2022-08-08T20:55:07.681Z,88.13
2022-08-08T20:58:23.302Z,88.24
2022-08-08T21:02:06.822Z,88.10
2022-08-08T21:04:50.287Z,87.73
2022-08-08T21:08:36.914Z,89.11
2022-08-08T21:11:17.129Z,90.04
2022-08-08T21:14:36.410Z,90.78
2022-08-08T21:17:55.976Z,90.63
2022-08-08T21:21:09.824Z,91.87
2022-08-08T21:24:30.268Z,91.91
2022-08-08T21:28:14.600Z,92.41
2022-08-08T21:31:05.907Z,93.21
2022-08-08T21:34:18.557Z,94.18
2022-08-08T21:37:53.976Z,93.79
2022-08-08T21:40:55.860Z,93.62
2022-08-08T21:43:59.389Z,94.06
2022-08-08T21:48:08.148Z,93.57
2022-08-08T21:50:27.370Z,94.37
2022-08-08T21:54:36.229Z,94.99
2022-08-08T21:56:54.524Z,95.48
2022-08-08T22:03:49.955Z,97.43
2022-08-08T22:07:09.614Z,97.32
2022-08-08T22:10:32.674Z,97.08
2022-08-08T22:13:51.610Z,96.93
2022-08-08T22:17:05.683Z,97.07
2022-08-08T22:20:29.075Z,97.45
2022-08-08T22:23:52.079Z,97.63
2022-08-08T22:27:04.428Z,98.43
2022-08-08T22:30:29.794Z,98.55
2022-08-08T22:34:13.772Z,98.04
2022-08-08T22:37:03.271Z,98.33
2022-08-08T22:40:18.510Z,98.76
2022-08-08T22:47:34.536Z,99.36
2022-08-08T22:50:31.884Z,99.33
2022-08-08T22:54:32.832Z,99.82
2022-08-08T22:56:59.271Z,99.43
2022-08-08T23:00:15.717Z,98.98
2022-08-08T23:03:34.413Z,98.54
2022-08-08T23:06:42.733Z,97.74
2022-08-08T23:09:58.661Z,97.72
2022-08-08T23:13:10.071Z,97.61
2022-08-08T23:16:38.995Z,97.59
2022-08-08T23:19:36.061Z,96.53
2022-08-08T23:22:57.351Z,96.13
2022-08-08T23:26:09.035Z,96.14
2022-08-08T23:29:22.636Z,96.26
2022-08-08T23:32:34.595Z,96.60
2022-08-08T23:36:06.523Z,96.42
2022-08-08T23:38:59.945Z,96.54
2022-08-08T23:42:14.152Z,96.62
2022-08-08T23:49:00.668Z,96.93
2022-08-08T23:49:05.326Z,96.71
2022-08-08T23:52:04.710Z,96.89
2022-08-08T23:55:22.279Z,97.31
2022-08-08T23:58:37.590Z,97.69
